Time;durP1;ratioP1;P1;durP2;ratioP2;P2;SDS_P1;SDS_P2;PMS_P1;PMS_P2;Temp;Humidity;BMP_temperature;BMP_pressure;BME280_temperature;BME280_humidity;BME280_pressure;Samples;Min_cycle;Max_cycle;Signal;HPM_P1;HPM_P2
2022/02/16 00:03:26;;;;;;;20.92;5.82;;;;;;;3.37;100.00;98779.00;4940403;24;20124;-83
2022/02/16 00:05:52;;;;;;;31.02;6.60;;;;;;;2.78;100.00;98700.81;4794787;29;20043;-82
2022/02/16 00:08:17;;;;;;;28.20;5.70;;;;;;;4.41;100.00;98938.94;4794719;29;20052;-83
2022/02/16 00:10:43;;;;;;;18.45;4.35;;;;;;;4.37;100.00;98931.56;4779260;29;20031;-83
2022/02/16 00:13:08;;;;;;;26.42;5.30;;;;;;;4.44;100.00;98940.38;4797733;29;20008;-83
2022/02/16 00:23:21;;;;;;;20.55;4.15;;;;;;;3.41;100.00;98782.91;5439742;24;20043;-83
2022/02/16 00:25:47;;;;;;;21.33;4.55;;;;;;;3.64;100.00;98843.69;4809258;29;20012;-83
2022/02/16 00:28:17;;;;;;;20.40;4.05;;;;;;;3.40;100.00;98800.69;4793190;29;20032;-83
2022/02/16 00:30:43;;;;;;;24.38;4.53;;;;;;;4.26;100.00;98913.53;4793875;29;20016;-82
2022/02/16 00:33:08;;;;;;;21.67;4.50;;;;;;;4.47;100.00;98948.78;4778927;29;20042;-83
2022/02/16 00:35:34;;;;;;;27.75;5.45;;;;;;;3.40;100.00;98781.25;4902818;24;20058;-82
2022/02/16 00:38:00;;;;;;;18.10;4.72;;;;;;;4.24;100.00;98911.09;4786995;30;20016;-83
2022/02/16 00:40:25;;;;;;;16.15;4.45;;;;;;;4.29;100.00;98923.78;4789748;29;20043;-83
2022/02/16 00:42:51;;;;;;;21.13;5.15;;;;;;;4.31;100.00;98924.41;4773841;30;20017;-83
2022/02/16 00:45:16;;;;;;;22.60;5.18;;;;;;;4.47;100.00;98947.97;4793413;30;20019;-83
2022/02/16 00:47:42;;;;;;;24.02;4.85;;;;;;;4.49;100.00;98940.56;4786868;30;20042;-82
2022/02/16 00:50:08;;;;;;;17.60;4.28;;;;;;;4.46;100.00;98940.97;4759278;30;20016;-82
2022/02/16 00:52:33;;;;;;;18.83;4.07;;;;;;;4.39;100.00;98940.16;4799165;29;20103;-83
2022/02/16 00:54:59;;;;;;;32.92;4.43;;;;;;;4.35;100.00;98941.63;4770836;30;20039;-82
2022/02/16 00:57:24;;;;;;;14.25;2.88;;;;;;;4.41;100.00;98932.81;4799325;29;20036;-83
2022/02/16 00:59:50;;;;;;;20.00;4.10;;;;;;;4.44;100.00;98937.72;4790112;29;20020;-83
2022/02/16 01:02:17;;;;;;;24.13;3.47;;;;;;;4.34;100.00;98919.50;4776380;30;20107;-83
2022/02/16 01:04:42;;;;;;;17.98;3.13;;;;;;;4.44;100.00;98929.75;4778030;30;20028;-82
2022/02/16 01:07:08;;;;;;;17.85;2.70;;;;;;;4.45;100.00;98928.69;4789948;30;20074;-83
2022/02/16 01:09:33;;;;;;;16.98;2.65;;;;;;;4.39;100.00;98930.34;4774713;30;20033;-83
2022/02/16 01:11:59;;;;;;;16.83;2.20;;;;;;;4.32;100.00;98912.72;4774585;30;20044;-82
2022/02/16 01:14:24;;;;;;;25.40;2.92;;;;;;;4.32;100.00;98926.03;4787427;30;20039;-83
2022/02/16 01:16:50;;;;;;;17.13;2.33;;;;;;;4.29;100.00;98913.13;4775216;30;20044;-82
2022/02/16 01:19:15;;;;;;;36.70;3.53;;;;;;;4.37;100.00;98939.53;4776242;29;20044;-82
2022/02/16 01:21:41;;;;;;;19.90;2.65;;;;;;;4.23;100.00;98920.09;4788024;29;20143;-83
2022/02/16 01:24:07;;;;;;;14.23;2.25;;;;;;;4.30;100.00;98939.53;4788756;30;20036;-83
2022/02/16 01:26:32;;;;;;;19.65;3.05;;;;;;;4.21;100.00;98917.66;4780910;30;20015;-82
2022/02/16 01:28:57;;;;;;;26.92;3.22;;;;;;;4.13;100.00;98904.53;4786597;30;20080;-82
2022/02/16 01:31:24;;;;;;;24.52;2.65;;;;;;;4.34;100.00;98935.47;4774156;30;20049;-82
2022/02/16 01:33:51;;;;;;;22.45;2.72;;;;;;;4.38;100.00;98930.56;4804904;30;20036;-82
2022/02/16 01:36:16;;;;;;;18.52;2.25;;;;;;;4.34;100.00;98919.50;4791990;30;20059;-82
2022/02/16 01:38:42;;;;;;;21.08;2.80;;;;;;;4.28;100.00;98919.50;4787978;30;20051;-83
2022/02/16 01:41:14;;;;;;;25.05;3.38;;;;;;;4.44;100.00;98943.06;4792674;30;20065;-83
2022/02/16 01:43:44;;;;;;;26.08;2.83;;;;;;;4.36;100.00;98925.41;4791883;29;20023;-83
2022/02/16 01:46:09;;;;;;;25.17;3.05;;;;;;;4.46;100.00;98931.16;4789456;29;20043;-83
2022/02/16 01:48:35;;;;;;;26.35;3.05;;;;;;;4.47;100.00;98926.66;4795788;30;20023;-83
2022/02/16 01:51:01;;;;;;;20.13;3.03;;;;;;;4.03;100.00;98852.72;4807757;29;20012;-83
2022/02/16 01:53:26;;;;;;;27.45;2.85;;;;;;;4.38;100.00;98912.72;4806801;30;20043;-83
2022/02/16 01:55:52;;;;;;;20.83;2.67;;;;;;;4.44;100.00;98916.41;4807370;30;20035;-82
2022/02/16 01:58:17;;;;;;;26.20;3.90;;;;;;;4.48;100.00;98938.94;4778610;30;20076;-83
2022/02/16 02:00:44;;;;;;;19.08;2.63;;;;;;;4.31;100.00;98895.13;4788100;29;20023;-82
2022/02/16 02:03:09;;;;;;;17.35;2.60;;;;;;;4.32;100.00;98923.38;4777854;30;20036;-82
2022/02/16 02:05:34;;;;;;;21.73;2.70;;;;;;;4.22;100.00;98905.97;4774574;30;20036;-83
2022/02/16 02:08:00;;;;;;;26.00;2.28;;;;;;;4.41;100.00;98914.97;4785876;30;20047;-79
2022/02/16 02:10:25;;;;;;;16.13;1.95;;;;;;;4.43;100.00;98925.41;4781212;30;20186;-80
2022/02/16 02:12:53;;;;;;;23.40;2.53;;;;;;;4.26;100.00;98913.53;4774481;30;20021;-82
2022/02/16 02:15:23;;;;;;;16.52;2.50;;;;;;;4.24;100.00;98929.72;4775990;29;20127;-83
2022/02/16 02:17:49;;;;;;;23.90;2.95;;;;;;;4.05;100.00;98904.72;4780964;30;20024;-82
2022/02/16 02:20:33;;;;;;;15.95;2.20;;;;;;;4.28;100.00;98920.31;4791787;30;20036;-83
2022/02/16 02:23:00;;;;;;;16.85;2.17;;;;;;;4.34;100.00;98923.97;4795558;30;20118;-84
2022/02/16 02:25:25;;;;;;;23.08;2.20;;;;;;;4.36;100.00;98925.41;4794984;30;20056;-82
2022/02/16 02:27:52;;;;;;;21.98;2.47;;;;;;;4.22;100.00;98919.28;4792309;30;20083;-83
2022/02/16 02:30:17;;;;;;;14.10;2.38;;;;;;;4.21;100.00;98907.00;4808471;29;20016;-83
2022/02/16 02:32:44;;;;;;;16.83;2.08;;;;;;;4.28;100.00;98916.84;4780469;30;20036;-83
2022/02/16 02:35:11;;;;;;;19.25;1.85;;;;;;;4.18;100.00;98917.25;4778031;29;20072;-83
2022/02/16 02:37:41;;;;;;;21.63;2.42;;;;;;;4.21;100.00;98917.66;4778019;29;20034;-81
2022/02/16 02:40:07;;;;;;;24.42;2.22;;;;;;;4.04;100.00;98897.78;4777244;29;20054;-82
2022/02/16 02:42:40;;;;;;;23.88;2.80;;;;;;;3.49;100.00;98802.16;5181229;24;20064;-82
2022/02/16 02:45:07;;;;;;;17.58;1.92;;;;;;;3.73;100.00;98863.75;4803060;29;20032;-82
2022/02/16 02:47:33;;;;;;;22.70;2.50;;;;;;;3.14;100.00;98766.91;4776130;30;20020;-83
2022/02/16 02:49:59;;;;;;;18.20;2.00;;;;;;;2.67;100.00;98704.88;4778000;30;20026;-83
2022/02/16 02:52:25;;;;;;;17.67;2.50;;;;;;;3.91;100.00;98892.44;4791450;30;20028;-83
2022/02/16 02:54:50;;;;;;;20.83;2.28;;;;;;;4.07;100.00;98920.47;4806899;29;20044;-83
2022/02/16 02:57:16;;;;;;;18.73;2.60;;;;;;;4.16;100.00;98930.72;4778133;29;20033;-84
2022/02/16 02:59:42;;;;;;;17.67;2.20;;;;;;;4.21;100.00;98932.81;4807820;29;20044;-83
2022/02/16 03:02:07;;;;;;;21.92;2.10;;;;;;;4.19;100.00;98930.31;4801039;29;20037;-83
2022/02/16 03:04:33;;;;;;;13.35;1.73;;;;;;;4.18;100.00;98928.69;4788602;30;20041;-83
2022/02/16 03:06:59;;;;;;;15.13;2.70;;;;;;;4.14;100.00;98932.78;4791825;30;20044;-83
2022/02/16 03:09:24;;;;;;;13.95;1.70;;;;;;;4.06;100.00;98925.00;4893097;24;20081;-83
2022/02/16 03:11:50;;;;;;;11.88;1.55;;;;;;;3.95;100.00;98917.63;4776359;30;20020;-83
2022/02/16 03:14:15;;;;;;;7.60;1.20;;;;;;;3.83;100.00;98911.25;4775873;30;20049;-82
2022/02/16 03:16:40;;;;;;;7.78;0.93;;;;;;;3.76;100.00;98912.03;4790988;30;20061;-83
2022/02/16 03:19:06;;;;;;;11.52;1.10;;;;;;;3.68;100.00;98906.94;4795824;30;20030;-83
2022/02/16 03:21:32;;;;;;;9.93;1.00;;;;;;;3.59;100.00;98889.50;4793984;29;20062;-83
2022/02/16 03:23:57;;;;;;;11.50;1.42;;;;;;;3.61;100.00;98894.63;4793496;29;20016;-83
2022/02/16 03:26:22;;;;;;;8.45;1.00;;;;;;;3.62;100.00;98902.41;4792605;29;20058;-81
2022/02/16 03:28:48;;;;;;;8.73;1.20;;;;;;;3.60;100.00;98909.75;4807080;29;20036;-82
2022/02/16 03:31:14;;;;;;;9.70;1.10;;;;;;;3.48;100.00;98890.09;4795789;30;20111;-83
2022/02/16 03:33:40;;;;;;;7.38;0.93;;;;;;;3.63;100.00;98920.00;4794417;30;20020;-83
2022/02/16 03:36:05;;;;;;;11.80;1.15;;;;;;;3.48;100.00;98892.75;4793048;30;20096;-81
2022/02/16 03:38:31;;;;;;;14.13;1.65;;;;;;;3.51;100.00;98901.16;4777675;29;20036;-82
2022/02/16 03:40:56;;;;;;;8.20;1.15;;;;;;;3.66;100.00;98918.78;4794060;29;20032;-82
2022/02/16 03:43:22;;;;;;;11.85;1.70;;;;;;;3.63;100.00;98911.19;4794903;29;20121;-83
2022/02/16 03:45:48;;;;;;;15.05;1.80;;;;;;;3.69;100.00;98919.19;4793264;30;20028;-82
2022/02/16 03:48:13;;;;;;;13.23;1.45;;;;;;;3.70;100.00;98920.00;4790456;30;20225;-83
2022/02/16 03:50:39;;;;;;;15.13;2.00;;;;;;;3.74;100.00;98926.56;4794521;29;20062;-83
2022/02/16 03:53:04;;;;;;;12.63;1.40;;;;;;;3.25;100.00;98851.38;4793397;30;20053;-83
2022/02/16 03:55:30;;;;;;;15.07;1.50;;;;;;;3.64;100.00;98903.03;4793536;30;20055;-83
2022/02/16 03:57:55;;;;;;;14.07;1.50;;;;;;;3.83;100.00;98935.19;4793070;30;20047;-83
2022/02/16 04:00:20;;;;;;;12.80;1.90;;;;;;;3.81;100.00;98921.25;4776720;30;20040;-83
2022/02/16 04:02:46;;;;;;;17.35;1.85;;;;;;;3.91;100.00;98933.16;4782873;30;20020;-83
2022/02/16 04:05:12;;;;;;;18.80;2.13;;;;;;;3.86;100.00;98918.81;4776052;30;20048;-83
2022/02/16 04:07:37;;;;;;;18.73;1.73;;;;;;;3.80;100.00;98924.94;4782627;30;20023;-82
2022/02/16 04:10:04;;;;;;;13.63;1.52;;;;;;;3.78;100.00;98940.31;4793287;29;20099;-82
2022/02/16 04:12:30;;;;;;;9.10;1.55;;;;;;;3.58;100.00;98941.06;4794349;30;20032;-84
2022/02/16 04:14:56;;;;;;;4.90;0.80;;;;;;;3.40;100.00;98919.50;4793490;29;20019;-83
2022/02/16 04:17:21;;;;;;;5.68;0.80;;;;;;;3.27;100.00;98921.09;4807607;29;20031;-83
2022/02/16 04:19:47;;;;;;;7.53;0.75;;;;;;;3.26;100.00;98919.47;4794730;29;20081;-82
2022/02/16 04:22:14;;;;;;;10.18;1.00;;;;;;;1.47;100.00;98631.03;5151807;24;20047;-84
2022/02/16 04:32:25;;;;;;;5.55;0.82;;;;;;;3.14;100.00;98909.59;5763706;24;20212;-79
2022/02/16 04:34:50;;;;;;;13.50;1.05;;;;;;;3.20;100.00;98919.44;4774007;30;20112;-82
2022/02/16 04:37:15;;;;;;;11.13;1.42;;;;;;;3.26;100.00;98923.97;4774949;30;20104;-83
2022/02/16 04:39:41;;;;;;;11.10;1.13;;;;;;;3.18;100.00;98913.47;4771966;30;20040;-81
2022/02/16 04:42:06;;;;;;;9.93;1.08;;;;;;;3.23;100.00;98925.16;4769454;30;20031;-83
2022/02/16 04:44:32;;;;;;;11.30;1.15;;;;;;;3.15;100.00;98914.72;4775613;30;20040;-83
2022/02/16 04:49:33;;;;;;;16.23;1.67;;;;;;;3.22;100.00;98918.22;5197744;24;20039;-82
2022/02/16 04:54:34;;;;;;;13.02;1.40;;;;;;;1.65;100.00;98673.75;5386277;24;20064;-84
2022/02/16 04:56:59;;;;;;;12.43;1.55;;;;;;;2.58;100.00;98812.25;4799351;29;20042;-84
2022/02/16 04:59:25;;;;;;;13.65;2.17;;;;;;;2.04;100.00;98733.38;4803854;29;20023;-85
2022/02/16 05:01:51;;;;;;;10.38;1.40;;;;;;;3.20;100.00;98893.66;4807723;29;20035;-83
2022/02/16 05:04:16;;;;;;;12.73;1.33;;;;;;;3.25;100.00;98903.72;4798805;29;20497;-83
2022/02/16 05:06:42;;;;;;;16.30;1.73;;;;;;;3.23;100.00;98909.22;4763416;29;20012;-84
2022/02/16 05:09:08;;;;;;;13.02;1.63;;;;;;;3.23;100.00;98906.56;4793005;30;20016;-84
2022/02/16 05:11:34;;;;;;;20.52;1.92;;;;;;;3.11;100.00;98892.19;4786773;30;20046;-84
2022/02/16 05:13:59;;;;;;;16.50;1.77;;;;;;;3.18;100.00;98905.50;4791949;29;20075;-84
2022/02/16 05:16:25;;;;;;;16.25;2.08;;;;;;;3.17;100.00;98914.50;4790924;30;20020;-83
2022/02/16 05:18:50;;;;;;;21.38;2.40;;;;;;;3.14;100.00;98904.28;4800002;29;20054;-83
2022/02/16 05:21:16;;;;;;;21.90;3.10;;;;;;;3.09;100.00;98907.53;4807795;29;20019;-82
2022/02/16 05:23:42;;;;;;;25.52;2.60;;;;;;;3.08;100.00;98902.41;4793323;29;20079;-82
2022/02/16 05:26:08;;;;;;;22.02;2.80;;;;;;;3.07;100.00;98906.91;4764371;30;20047;-80
2022/02/16 05:28:33;;;;;;;20.52;2.70;;;;;;;3.03;100.00;98897.69;4768627;30;20040;-83
2022/02/16 05:30:59;;;;;;;19.38;2.22;;;;;;;3.02;100.00;98896.06;4803362;29;20027;-82
2022/02/16 05:33:24;;;;;;;20.23;2.20;;;;;;;2.87;100.00;98874.09;4781884;29;20039;-83
2022/02/16 05:35:50;;;;;;;16.02;1.92;;;;;;;2.17;100.00;98781.19;4998268;24;20044;-82
2022/02/16 05:38:16;;;;;;;21.63;2.38;;;;;;;3.01;100.00;98894.41;4783287;30;20074;-82
2022/02/16 05:40:43;;;;;;;21.60;2.60;;;;;;;1.11;100.00;98616.91;4781816;30;20024;-82
2022/02/16 05:43:15;;;;;;;20.70;2.15;;;;;;;1.61;100.00;98670.69;4780916;30;20089;-81
2022/02/16 05:45:44;;;;;;;25.40;1.83;;;;;;;1.19;100.00;98623.91;4839715;24;20044;-83
2022/02/16 05:48:10;;;;;;;16.38;1.83;;;;;;;1.21;100.00;98629.03;4779236;29;20036;-82
2022/02/16 05:50:37;;;;;;;16.08;2.15;;;;;;;1.37;100.00;98661.34;4775622;30;20063;-81
2022/02/16 05:53:04;;;;;;;15.15;2.65;;;;;;;1.86;100.00;98718.78;4780660;30;20039;-82
2022/02/16 05:55:29;;;;;;;13.30;1.77;;;;;;;1.19;100.00;98613.31;4775923;29;20041;-82
2022/02/16 05:57:55;;;;;;;20.00;2.85;;;;;;;1.90;100.00;98713.09;4775687;30;20093;-81
2022/02/16 06:00:20;;;;;;;23.35;2.63;;;;;;;1.41;100.00;98640.56;4767465;30;20080;-81
2022/02/16 06:02:46;;;;;;;14.35;2.10;;;;;;;2.95;100.00;98887.25;4785598;30;20024;-81
2022/02/16 06:05:12;;;;;;;19.60;2.92;;;;;;;1.84;100.00;98712.84;4772932;30;20046;-82
2022/02/16 06:07:37;;;;;;;29.88;3.05;;;;;;;1.14;100.00;98603.28;4778897;29;20059;-81
2022/02/16 06:15:13;;;;;;;24.40;3.10;;;;;;;2.92;100.00;98890.28;5240037;24;20054;-83
2022/02/16 06:17:39;;;;;;;22.08;2.83;;;;;;;2.93;100.00;98894.56;4800870;29;20063;-84
2022/02/16 06:25:15;;;;;;;26.10;3.08;;;;;;;1.31;100.00;98643.56;4861795;24;20074;-82
2022/02/16 06:27:40;;;;;;;28.73;3.67;;;;;;;1.44;100.00;98665.88;5714110;24;20025;-82
2022/02/16 06:30:08;;;;;;;31.50;3.30;;;;;;;1.70;100.00;98727.03;4779019;30;20024;-83
2022/02/16 06:32:34;;;;;;;33.55;3.70;;;;;;;0.81;100.00;98594.28;4792217;29;20062;-83
2022/02/16 06:35:00;;;;;;;35.35;3.67;;;;;;;1.01;100.00;98603.19;4768078;30;20047;-82
2022/02/16 06:37:26;;;;;;;27.45;3.45;;;;;;;1.71;100.00;98694.19;4772288;30;20024;-81
2022/02/16 06:39:52;;;;;;;32.80;3.40;;;;;;;1.19;100.00;98621.25;4767875;30;20043;-81
2022/02/16 06:42:18;;;;;;;29.83;3.22;;;;;;;1.39;100.00;98661.97;4769625;30;20036;-82
2022/02/16 06:44:44;;;;;;;36.60;3.60;;;;;;;1.68;100.00;98702.53;4771945;30;20027;-82
2022/02/16 06:47:09;;;;;;;32.50;3.60;;;;;;;1.05;100.00;98600.97;4774133;30;20036;-81
2022/02/16 06:49:35;;;;;;;25.77;3.35;;;;;;;1.59;100.00;98656.81;4782011;30;20027;-82
2022/02/16 06:52:01;;;;;;;33.80;2.92;;;;;;;2.04;100.00;98717.47;4789541;30;20083;-81
2022/02/16 06:54:27;;;;;;;41.50;4.38;;;;;;;2.16;100.00;98726.50;4762046;30;20032;-80
2022/02/16 06:56:52;;;;;;;40.00;4.05;;;;;;;1.96;100.00;98678.66;4778243;30;20054;-81
2022/02/16 06:59:19;;;;;;;29.38;3.53;;;;;;;1.49;100.00;98610.44;4778006;30;20043;-82
2022/02/16 07:01:44;;;;;;;38.63;4.70;;;;;;;2.01;100.00;98678.06;4782068;30;20028;-81
2022/02/16 07:04:10;;;;;;;42.88;4.85;;;;;;;2.53;100.00;98732.41;4789533;29;20020;-82
2022/02/16 07:06:35;;;;;;;32.97;4.05;;;;;;;3.16;100.00;98836.63;4774301;30;20046;-81
2022/02/16 07:09:01;;;;;;;40.95;4.95;;;;;;;2.55;100.00;98752.44;4769779;30;20052;-82
2022/02/16 07:11:27;;;;;;;50.85;5.22;;;;;;;2.33;100.00;98693.31;4773812;30;20047;-81
2022/02/16 07:13:52;;;;;;;39.50;4.50;;;;;;;3.44;100.00;98881.69;4787998;30;20036;-81
2022/02/16 07:16:18;;;;;;;34.58;4.65;;;;;;;2.23;100.00;98689.41;4786555;30;20060;-82
2022/02/16 07:18:43;;;;;;;44.67;4.40;;;;;;;3.33;100.00;98845.06;4778553;30;20028;-83
2022/02/16 07:54:33;;;;;;;42.85;4.90;;;;;;;2.99;100.00;98737.03;5806849;24;20026;-81
2022/02/16 07:56:58;;;;;;;33.08;4.05;;;;;;;3.71;100.00;98832.06;4792299;29;20098;-84
2022/02/16 07:59:24;;;;;;;31.83;3.92;;;;;;;3.75;100.00;98835.13;4794844;29;20016;-83
2022/02/16 08:01:50;;;;;;;37.25;4.88;;;;;;;3.65;100.00;98814.25;4792327;29;20027;-83
2022/02/16 08:06:51;;;;;;;41.05;5.13;;;;;;;2.44;100.00;98606.16;5361736;24;20124;-83
2022/02/16 08:09:17;;;;;;;34.80;4.40;;;;;;;2.34;100.00;98567.56;4776808;29;20076;-82
2022/02/16 08:11:45;;;;;;;33.83;4.55;;;;;;;3.47;100.00;98728.91;4777661;29;20040;-82
2022/02/16 08:14:11;;;;;;;30.42;3.40;;;;;;;2.45;100.00;98570.63;4782681;30;20062;-81
2022/02/16 08:16:37;;;;;;;42.60;3.88;;;;;;;2.98;100.00;98642.41;4776887;30;20028;-83
2022/02/16 08:19:04;;;;;;;35.30;3.80;;;;;;;3.25;100.00;98707.84;4777401;29;20050;-84
2022/02/16 08:55:08;;;;;;;27.27;3.60;;;;;;;2.93;100.00;98542.09;5223955;24;20051;-82
2022/02/16 09:02:44;;;;;;;27.10;3.22;;;;;;;3.36;100.00;98580.66;4974285;24;20052;-83
2022/02/16 09:10:21;;;;;;;34.63;4.35;;;;;;;2.99;100.00;98492.63;5330366;24;20048;-84
2022/02/16 09:25:44;;;;;;;39.53;4.03;;;;;;;3.97;100.00;98575.81;5005363;24;20043;-83
2022/02/16 09:28:11;;;;;;;30.38;3.65;;;;;;;4.06;100.00;98576.34;4793368;29;20035;-84
2022/02/16 09:30:37;;;;;;;38.42;4.45;;;;;;;3.26;100.00;98438.38;4790173;29;20040;-83
2022/02/16 09:35:38;;;;;;;37.50;3.90;;;;;;;3.82;100.00;98468.81;5628066;24;20047;-84
2022/02/16 09:40:39;;;;;;;30.92;4.40;;;;;;;5.05;100.00;98641.53;5419798;24;20060;-84
2022/02/16 09:43:05;;;;;;;30.60;4.00;;;;;;;4.30;100.00;98512.75;4780407;30;20123;-83
2022/02/16 09:50:41;;;;;;;37.83;4.20;;;;;;;4.01;100.00;98445.81;5181020;24;19925;-82
2022/02/16 09:53:06;;;;;;;38.22;5.03;;;;;;;3.90;100.00;98420.69;5030988;24;20128;-83
2022/02/16 09:55:33;;;;;;;48.55;4.78;;;;;;;3.72;100.00;98386.03;4931236;24;20100;-77
2022/02/16 09:57:59;;;;;;;43.47;3.97;;;;;;;3.71;100.00;98369.25;4774582;29;20039;-83
2022/02/16 10:03:10;;;;;;;44.08;5.10;;;;;;;5.48;100.00;98616.78;5207988;24;20052;-82
2022/02/16 10:08:10;;;;;;;36.67;4.78;;;;;;;3.82;100.00;98337.69;5755450;24;20043;-81
2022/02/16 10:36:29;;;;;;;35.90;4.78;;;;;;;4.23;100.00;98295.34;5437144;24;20034;-83
2022/02/16 10:38:56;;;;;;;34.55;4.55;;;;;;;4.66;100.00;98377.06;4810990;29;20043;-83
2022/02/16 10:41:30;;;;;;;39.95;4.82;;;;;;;4.82;100.00;98380.19;4813493;29;20051;-83
2022/02/16 10:43:57;;;;;;;31.83;4.10;;;;;;;4.36;100.00;98288.25;4796828;29;20092;-83
2022/02/16 10:46:25;;;;;;;38.92;4.35;;;;;;;4.07;100.00;98255.97;4795328;29;20030;-82
2022/02/16 10:51:26;;;;;;;31.20;3.92;;;;;;;4.77;100.00;98361.38;4916633;24;20068;-82
2022/02/16 10:53:53;;;;;;;34.95;4.63;;;;;;;4.94;100.00;98389.06;4777842;29;20050;-83
2022/02/16 10:56:18;;;;;;;30.65;4.03;;;;;;;5.30;100.00;98416.75;4786222;29;20040;-84
2022/02/16 10:58:44;;;;;;;39.88;4.60;;;;;;;4.54;100.00;98293.63;4794460;29;20032;-86
2022/02/16 11:11:31;;;;;;;36.05;4.75;;;;;;;4.73;100.00;98291.75;5654523;24;19918;-83
2022/02/16 11:16:32;;;;;;;36.08;4.05;;;;;;;3.97;100.00;98178.50;5177166;24;20060;-83
2022/02/16 11:29:27;;;;;;;43.25;5.22;;;;;;;5.59;100.00;98407.16;5693490;24;20520;-83
2022/02/16 11:32:02;;;;;;;37.70;4.88;;;;;;;5.54;100.00;98397.16;4811889;29;20048;-83
2022/02/16 11:34:28;;;;;;;;;;;;;;;5.46;100.00;98397.47;4808369;29;20013;-82
2022/02/16 11:36:58;;;;;;;44.17;4.53;;;;;;;4.23;100.00;98204.84;4793500;29;19932;-83
2022/02/16 11:39:49;;;;;;;38.42;5.28;;;;;;;5.45;100.00;98379.03;4792674;30;20032;-82
2022/02/16 11:42:19;;;;;;;47.67;6.20;;;;;;;4.57;100.00;98218.59;4793766;29;20091;-83
2022/02/16 11:44:51;;;;;;;50.28;5.78;;;;;;;5.48;100.00;98363.38;4792740;29;20020;-81
2022/02/16 11:47:45;;;;;;;51.28;5.60;;;;;;;5.45;100.00;98347.03;4791467;29;20024;-80
2022/02/16 11:50:10;;;;;;;56.33;6.57;;;;;;;5.49;100.00;98342.84;4800313;29;20050;-82
2022/02/16 11:52:52;;;;;;;60.30;7.65;;;;;;;5.51;100.00;98346.13;4788060;30;20035;-81
2022/02/16 11:55:31;;;;;;;43.45;6.70;;;;;;;5.58;100.00;98333.50;4776027;30;20016;-83
2022/02/16 11:58:12;;;;;;;47.17;6.78;;;;;;;5.53;100.00;98302.19;4794066;29;20015;-84
2022/02/16 12:03:13;;;;;;;51.42;6.50;;;;;;;5.10;100.00;98204.56;4791499;30;20063;-82
2022/02/16 12:06:08;;;;;;;48.65;6.55;;;;;;;4.07;100.00;98040.44;4792926;29;20036;-81
2022/02/16 12:08:51;;;;;;;54.63;6.43;;;;;;;5.89;100.00;98300.38;4790043;30;20020;-82
2022/02/16 12:11:28;;;;;;;35.08;6.60;;;;;;;4.48;100.00;98062.84;4793644;30;20046;-83
2022/02/16 12:13:56;;;;;;;46.45;6.28;;;;;;;4.63;100.00;98070.38;4775948;30;20032;-81
2022/02/16 12:16:26;;;;;;;41.97;5.47;;;;;;;4.23;100.00;98002.56;4802480;29;20073;-81
2022/02/16 12:18:52;;;;;;;34.50;5.95;;;;;;;6.06;100.00;98265.84;4789065;30;20449;-82
2022/02/16 12:21:27;;;;;;;48.30;5.95;;;;;;;5.39;100.00;98151.41;4808802;30;20056;-82
2022/02/16 12:24:02;;;;;;;47.95;5.68;;;;;;;4.15;100.00;97981.59;4810026;29;20014;-83
2022/02/16 12:26:33;;;;;;;;;;;;;;;5.92;100.00;98233.19;4795745;29;20020;-82
2022/02/16 12:29:06;;;;;;;48.20;6.60;;;;;;;4.45;100.00;98012.69;4793043;30;19922;-82
2022/02/16 12:31:36;;;;;;;50.22;8.13;;;;;;;4.28;100.00;97964.63;4791399;30;20027;-82
2022/02/16 12:34:11;;;;;;;44.95;6.32;;;;;;;6.01;100.00;98212.34;4808887;29;20031;-82
2022/02/16 12:36:45;;;;;;;39.92;5.35;;;;;;;4.74;100.00;98015.53;4799581;29;20115;-82
2022/02/16 12:39:11;;;;;;;42.88;6.25;;;;;;;5.39;100.00;98096.22;4790647;30;20020;-80
2022/02/16 12:41:39;;;;;;;35.83;5.65;;;;;;;4.23;100.00;97924.56;4790106;30;20038;-82
2022/02/16 12:44:06;;;;;;;38.88;5.80;;;;;;;6.00;100.00;98187.50;4791247;30;20004;-82
2022/02/16 12:46:41;;;;;;;34.20;4.50;;;;;;;5.19;100.00;98059.22;4790595;30;20035;-80
2022/02/16 12:49:10;;;;;;;34.78;5.22;;;;;;;4.15;100.00;97912.41;4789480;30;20012;-81
2022/02/16 12:51:37;;;;;;;37.72;6.40;;;;;;;5.82;100.00;98166.25;4790908;30;20060;-82
2022/02/16 12:54:06;;;;;;;40.72;5.80;;;;;;;4.77;100.00;97993.75;4789855;30;20031;-82
2022/02/16 12:56:34;;;;;;;43.58;7.75;;;;;;;4.53;100.00;97967.09;4791445;30;20041;-82
2022/02/16 12:59:17;;;;;;;42.00;6.57;;;;;;;5.74;100.00;98137.25;4788462;30;20019;-82
2022/02/16 13:01:43;;;;;;;38.15;5.47;;;;;;;5.72;100.00;98128.66;4792914;30;20035;-83
2022/02/16 13:04:09;;;;;;;44.67;6.13;;;;;;;5.77;100.00;98115.47;4792200;30;20036;-82
2022/02/16 13:06:41;;;;;;;38.80;6.13;;;;;;;5.72;100.00;98115.34;4788691;30;20096;-82
2022/02/16 13:09:08;;;;;;;37.05;5.55;;;;;;;5.70;100.00;98093.44;4789671;30;20030;-82
2022/02/16 13:11:55;;;;;;;37.42;5.75;;;;;;;5.71;100.00;98090.50;4806380;30;20043;-82
2022/02/16 13:14:24;;;;;;;36.65;5.38;;;;;;;5.65;100.00;98070.09;4809310;29;20037;-82
2022/02/16 13:17:06;;;;;;;37.22;5.72;;;;;;;5.74;100.00;98074.03;4806737;29;20065;-82
2022/02/16 13:19:49;;;;;;;31.98;5.07;;;;;;;5.56;100.00;98040.31;4794056;29;20031;-81
2022/02/16 13:22:23;;;;;;;33.63;5.70;;;;;;;5.56;100.00;98028.81;4783850;30;20490;-82
2022/02/16 13:24:51;;;;;;;33.10;5.32;;;;;;;5.75;100.00;98053.50;4798620;29;20035;-82
2022/02/16 13:27:16;;;;;;;26.55;4.25;;;;;;;5.72;100.00;98052.09;4789705;30;20035;-81
2022/02/16 13:29:42;;;;;;;23.58;4.35;;;;;;;5.55;100.00;98017.34;4771924;30;20063;-81
2022/02/16 13:32:25;;;;;;;33.80;5.30;;;;;;;5.29;100.00;97973.31;4790395;30;20074;-82
2022/02/16 13:34:51;;;;;;;30.25;4.60;;;;;;;5.46;100.00;98007.28;4794398;29;20030;-82
2022/02/16 13:37:16;;;;;;;30.27;4.78;;;;;;;5.36;100.00;97994.53;4802871;29;20032;-81
2022/02/16 13:39:42;;;;;;;29.98;4.20;;;;;;;5.28;100.00;97979.72;4792548;29;20073;-81
2022/02/16 13:42:14;;;;;;;28.70;3.97;;;;;;;5.51;100.00;98005.53;4790793;29;20023;-82
2022/02/16 13:44:40;;;;;;;20.52;4.20;;;;;;;5.37;100.00;97990.84;4789193;30;20023;-81
2022/02/16 13:47:15;;;;;;;27.77;4.93;;;;;;;5.47;100.00;97987.59;4791764;30;20031;-81
2022/02/16 13:49:52;;;;;;;26.40;4.38;;;;;;;5.39;100.00;97970.88;4805767;30;20030;-82
2022/02/16 13:52:21;;;;;;;34.70;4.30;;;;;;;5.36;100.00;97966.03;4808224;30;20004;-82
2022/02/16 13:54:55;;;;;;;28.15;4.32;;;;;;;5.52;100.00;97953.00;4805723;30;20038;-82
2022/02/16 13:57:28;;;;;;;32.25;3.85;;;;;;;5.58;100.00;97946.72;4808714;29;20042;-82
2022/02/16 13:59:54;;;;;;;27.02;3.88;;;;;;;5.62;100.00;97942.53;4797138;30;20038;-82
2022/02/16 14:02:22;;;;;;;28.35;4.15;;;;;;;5.30;100.00;97886.19;4793611;30;20055;-82
2022/02/16 14:05:05;;;;;;;21.13;4.45;;;;;;;5.56;100.00;97922.13;4793983;30;20038;-81
2022/02/16 14:07:31;;;;;;;29.58;3.80;;;;;;;5.55;100.00;97918.66;4806086;29;20011;-82
2022/02/16 14:09:57;;;;;;;26.55;4.00;;;;;;;5.30;100.00;97886.19;4808496;29;20045;-82
2022/02/16 14:12:23;;;;;;;20.88;4.18;;;;;;;5.47;100.00;97920.91;4812022;29;20031;-82
2022/02/16 14:14:48;;;;;;;19.35;3.10;;;;;;;5.33;100.00;97904.34;4811311;29;20031;-82
2022/02/16 14:17:13;;;;;;;18.88;2.95;;;;;;;5.30;100.00;97894.19;4778452;30;20032;-81
2022/02/16 14:19:39;;;;;;;18.33;3.22;;;;;;;5.33;100.00;97899.00;4793747;30;20042;-81
2022/02/16 14:22:08;;;;;;;15.35;2.90;;;;;;;5.30;100.00;97894.19;4792361;30;20092;-82
2022/02/16 14:24:34;;;;;;;15.90;3.60;;;;;;;5.29;100.00;97885.34;4794574;30;20031;-82
2022/02/16 14:27:07;;;;;;;18.52;3.80;;;;;;;5.00;100.00;97838.38;4794697;30;20049;-82
2022/02/16 14:29:46;;;;;;;24.05;3.35;;;;;;;5.16;100.00;97861.63;4794802;30;20027;-82
2022/02/16 14:32:12;;;;;;;24.90;3.60;;;;;;;5.03;100.00;97829.91;4792930;30;20039;-81
2022/02/16 14:34:39;;;;;;;20.85;3.88;;;;;;;5.18;100.00;97852.34;4792754;30;20040;-82
2022/02/16 14:37:06;;;;;;;16.45;3.42;;;;;;;5.16;100.00;97838.44;4793233;30;20031;-82
2022/02/16 14:39:32;;;;;;;9.70;2.22;;;;;;;5.19;100.00;97848.63;4794799;30;20024;-82
2022/02/16 14:41:58;;;;;;;12.48;2.00;;;;;;;5.20;100.00;97844.13;4795261;30;20123;-82
2022/02/16 14:44:23;;;;;;;18.38;2.75;;;;;;;5.10;100.00;97815.44;4785764;30;20091;-82